Search for airport 
image banner adimage banner adimage banner ad
image banner ad

9PS8 - Manor Landing

Located in Gettysburg, United States

ICAO - 9PS8, IATA -

Data provided by Airmate  

General information

Coordinates: N39°48'47" W77°17'42"
Elevation is 560 feet MSL.
Magnetic variation is -10° East
View others Airports in Pennsylvania

Operational data

Special qualification required
Current time UTC:
Current local time:
METAR: KDMW 150635Z AUTO 00000KT 10SM BKN065 19/16 A2981 RMK AO2 LTG DSNT SE
View NOTAMs / SUP AIP / TFR affecting this airport [VIEW]
Communications frequencies: [VIEW]

Runways:

RWY identifierQFULength (ft)Width (ft)SurfaceLDA (ft)
062000100GRASS
242000100GRASS

Airport contact information

Address: Gettysburg United States

Satellite view of 9PS8